Latest Weather Observations for Point Wilson

IDV60801

Issued at 8:05 pm EST Saturday 20 September 2014 (issued every 30 minutes, with the page automatically refreshed every 10 minutes)

About weather observations | Map of weather stations | Latest weather observations for VIC | Other Formats
Station Details ID: 087166 Name: POINT WILSON Lat: -38.10 Lon: 144.54 Height: 18.0 m
Data from the previous 72 hours. | See also: Recent months at Point Wilson
Date/Time
EST
Temp
°C
App
Temp
°C
Dew
Point
Rel
Hum
%
Delta-T
°C
Wind Press
QNH
hPa
Press
MSL
hPa
Rain
since 9 am
mm
Dir
 
Spd
km/h
Gust
km/h
Spd
kts
Gust
kts
20/08:00pm - - - - - S 20 24 11 13 - - -
20/07:30pm - - - - - S 17 20 9 11 - - -
20/07:00pm - - - - - S 20 24 11 13 - - -
20/06:30pm - - - - - S 22 26 12 14 - - -
20/06:00pm - - - - - S 20 26 11 14 - - -
20/05:30pm - - - - - S 26 30 14 16 - - -
20/05:00pm - - - - - S 28 32 15 17 - - -
20/04:30pm - - - - - S 24 30 13 16 - - -
20/04:00pm - - - - - S 26 28 14 15 - - -
20/03:30pm - - - - - S 28 30 15 16 - - -
20/03:00pm - - - - - S 26 32 14 17 - - -
20/02:30pm - - - - - SSW 24 30 13 16 - - -
20/02:00pm - - - - - SSW 24 28 13 15 - - -
20/01:30pm - - - - - S 22 28 12 15 - - -
20/01:00pm - - - - - SSW 22 26 12 14 - - -
20/12:30pm - - - - - SSW 24 28 13 15 - - -
20/12:00pm - - - - - S 22 28 12 15 - - -
20/11:30am - - - - - SSW 17 20 9 11 - - -
20/11:00am - - - - - W 9 11 5 6 - - -
20/10:30am - - - - - S 4 22 2 12 - - -
20/10:00am - - - - - S 7 9 4 5 - - -
20/09:30am - - - - - SW 19 28 10 15 - - -
20/09:00am - - - - - WSW 11 13 6 7 - - -
20/08:30am - - - - - SW 11 15 6 8 - - -
20/08:00am - - - - - SSW 20 26 11 14 - - -
20/07:30am - - - - - SW 15 17 8 9 - - -
20/07:00am - - - - - SW 20 24 11 13 - - -
20/06:30am - - - - - SW 17 20 9 11 - - -
20/06:00am - - - - - SW 19 20 10 11 - - -
20/05:30am - - - - - W 15 20 8 11 - - -
20/05:00am - - - - - W 17 22 9 12 - - -
20/04:30am - - - - - W 24 28 13 15 - - -
20/04:00am - - - - - WSW 19 22 10 12 - - -
20/03:30am - - - - - WSW 17 20 9 11 - - -
20/03:00am - - - - - W 20 24 11 13 - - -
20/02:30am - - - - - W 19 22 10 12 - - -
20/02:00am - - - - - WSW 22 28 12 15 - - -
20/01:30am - - - - - WSW 20 24 11 13 - - -
20/01:00am - - - - - SW 24 28 13 15 - - -
20/12:30am - - - - - WSW 17 20 9 11 - - -
20/12:00am - - - - - WSW 20 24 11 13 - - -
 
Date/Time
EST
Temp
°C
App
Temp
°C
Dew
Point
Rel
Hum
%
Delta-T
°C
Wind Press
QNH
hPa
Press
MSL
hPa
Rain
since 9 am
mm
Dir
 
Spd
km/h
Gust
km/h
Spd
kts
Gust
kts
19/11:30pm - - - - - SW 19 22 10 12 - - -
19/11:00pm - - - - - SW 30 35 16 19 - - -
19/10:30pm - - - - - WSW 17 20 9 11 - - -
19/10:00pm - - - - - SW 26 32 14 17 - - -
19/09:30pm - - - - - SW 26 30 14 16 - - -
19/09:00pm - - - - - WSW 19 22 10 12 - - -
19/08:30pm - - - - - SW 19 20 10 11 - - -
19/08:00pm - - - - - SW 20 24 11 13 - - -
19/07:30pm - - - - - SW 20 24 11 13 - - -
19/07:00pm - - - - - SSW 24 28 13 15 - - -
19/06:30pm - - - - - SSW 24 28 13 15 - - -
19/06:00pm - - - - - SSW 28 32 15 17 - - -
19/05:30pm - - - - - SSW 28 32 15 17 - - -
19/05:00pm - - - - - SSW 28 33 15 18 - - -
19/04:30pm - - - - - SSW 26 30 14 16 - - -
19/04:00pm - - - - - SSW 30 32 16 17 - - -
19/03:30pm - - - - - SSW 20 24 11 13 - - -
19/03:00pm - - - - - SSW 28 32 15 17 - - -
19/02:30pm - - - - - SSW 28 32 15 17 - - -
19/02:00pm - - - - - SSW 24 30 13 16 - - -
19/01:30pm - - - - - WSW 7 9 4 5 - - -
19/01:00pm - - - - - SW 24 30 13 16 - - -
19/12:30pm - - - - - SSW 22 26 12 14 - - -
19/12:00pm - - - - - W 15 19 8 10 - - -
19/11:30am - - - - - W 22 24 12 13 - - -
19/11:00am - - - - - W 22 26 12 14 - - -
19/10:30am - - - - - W 20 24 11 13 - - -
19/10:00am - - - - - W 22 30 12 16 - - -
19/09:30am - - - - - W 28 32 15 17 - - -
19/09:00am - - - - - W 30 33 16 18 - - -
19/08:30am - - - - - W 24 30 13 16 - - -
19/08:00am - - - - - W 30 35 16 19 - - -
19/07:30am - - - - - W 28 32 15 17 - - -
19/07:00am - - - - - W 28 32 15 17 - - -
19/06:30am - - - - - WNW 22 24 12 13 - - -
19/06:00am - - - - - W 28 33 15 18 - - -
19/05:30am - - - - - W 28 32 15 17 - - -
19/05:00am - - - - - W 26 32 14 17 - - -
19/04:30am - - - - - W 30 33 16 18 - - -
19/04:00am - - - - - W 26 32 14 17 - - -
19/03:30am - - - - - WSW 26 30 14 16 - - -
19/03:00am - - - - - W 28 32 15 17 - - -
19/02:30am - - - - - W 19 28 10 15 - - -
19/02:00am - - - - - WNW 20 24 11 13 - - -
19/01:30am - - - - - WNW 19 20 10 11 - - -
19/01:00am - - - - - W 26 28 14 15 - - -
19/12:30am - - - - - WNW 24 28 13 15 - - -
19/12:00am - - - - - W 24 30 13 16 - - -
 
Date/Time
EST
Temp
°C
App
Temp
°C
Dew
Point
Rel
Hum
%
Delta-T
°C
Wind Press
QNH
hPa
Press
MSL
hPa
Rain
since 9 am
mm
Dir
 
Spd
km/h
Gust
km/h
Spd
kts
Gust
kts
18/11:30pm - - - - - WNW 19 22 10 12 - - -
18/11:00pm - - - - - WNW 17 20 9 11 - - -
18/10:30pm - - - - - W 22 26 12 14 - - -
18/10:00pm - - - - - WSW 28 32 15 17 - - -
18/09:30pm - - - - - WSW 24 30 13 16 - - -
18/09:00pm - - - - - WSW 24 28 13 15 - - -
18/08:30pm - - - - - SW 22 30 12 16 - - -
18/08:00pm - - - - - SW 22 26 12 14 - - -
18/07:30pm - - - - - SW 28 33 15 18 - - -
18/07:00pm - - - - - SW 28 32 15 17 - - -
18/06:30pm - - - - - SSW 28 32 15 17 - - -
18/06:00pm - - - - - SSW 32 35 17 19 - - -
18/05:30pm - - - - - SSW 35 43 19 23 - - -
18/05:00pm - - - - - SSW 37 46 20 25 - - -
18/04:30pm - - - - - SSW 33 39 18 21 - - -
18/04:00pm - - - - - SSW 35 41 19 22 - - -
18/03:30pm - - - - - SSW 33 37 18 20 - - -
18/03:00pm - - - - - SSW 33 39 18 21 - - -
18/02:30pm - - - - - SSW 33 39 18 21 - - -
18/02:00pm - - - - - SSW 33 39 18 21 - - -
18/01:30pm - - - - - SSW 33 37 18 20 - - -
18/01:00pm - - - - - SSW 32 39 17 21 - - -
18/12:30pm - - - - - SSW 28 33 15 18 - - -
18/12:06pm - - - - - SSW 37 43 20 23 - - -
18/12:00pm - - - - - SSW 17 20 9 11 - - -
18/11:30am - - - - - SSW 30 37 16 20 - - -
18/11:00am - - - - - SW 22 26 12 14 - - -
18/10:30am - - - - - SSW 30 41 16 22 - - -
18/10:00am - - - - - WSW 20 30 11 16 - - -
18/09:30am - - - - - WSW 22 26 12 14 - - -
18/09:00am - - - - - W 30 35 16 19 - - -
18/08:30am - - - - - WSW 26 32 14 17 - - -
18/08:00am - - - - - W 30 35 16 19 - - -
18/07:30am - - - - - W 32 37 17 20 - - -
18/07:00am - - - - - W 32 35 17 19 - - -
18/06:30am - - - - - W 33 37 18 20 - - -
18/06:00am - - - - - W 32 37 17 20 - - -
18/05:30am - - - - - W 32 35 17 19 - - -
18/05:00am - - - - - WNW 24 32 13 17 - - -
18/04:30am - - - - - WNW 28 39 15 21 - - -
18/04:00am - - - - - W 32 35 17 19 - - -
18/03:30am - - - - - W 33 37 18 20 - - -
18/03:00am - - - - - W 33 41 18 22 - - -
18/02:30am - - - - - W 33 39 18 21 - - -
18/02:00am - - - - - W 37 43 20 23 - - -
18/01:30am - - - - - W 37 44 20 24 - - -
18/01:00am - - - - - W 37 48 20 26 - - -
18/12:30am - - - - - W 37 44 20 24 - - -
18/12:00am - - - - - W 37 44 20 24 - - -
 
Date/Time
EST
Temp
°C
App
Temp
°C
Dew
Point
Rel
Hum
%
Delta-T
°C
Wind Press
QNH
hPa
Press
MSL
hPa
Rain
since 9 am
mm
Dir
 
Spd
km/h
Gust
km/h
Spd
kts
Gust
kts
17/11:30pm - - - - - W 39 48 21 26 - - -
17/11:00pm - - - - - W 37 43 20 23 - - -
17/10:30pm - - - - - W 35 43 19 23 - - -
17/10:00pm - - - - - W 35 44 19 24 - - -
17/09:30pm - - - - - W 33 41 18 22 - - -
17/09:00pm - - - - - W 33 41 18 22 - - -
17/08:30pm - - - - - W 28 33 15 18 - - -

Other Formats:

Comma delimited format used in spreadsheet applications
http://www.bom.gov.au/fwo/IDV60801/IDV60801.94847.axf

JavaScript Object Notation format (JSON) in row-major order
http://www.bom.gov.au/fwo/IDV60801/IDV60801.94847.json